Time;durP1;ratioP1;P1;durP2;ratioP2;P2;SDS_P1;SDS_P2;PMS_P1;PMS_P2;Temp;Humidity;BMP_temperature;BMP_pressure;BME280_temperature;BME280_humidity;BME280_pressure;Samples;Min_cycle;Max_cycle;Signal;HPM_P1;HPM_P2
2023/06/15 00:00:13;;;;;;;5.82;5.22;;;22.10;50.00;;;;;;5032399;28;20158;-83
2023/06/15 00:02:39;;;;;;;5.93;5.32;;;22.10;50.00;;;;;;5033792;28;20166;-81
2023/06/15 00:05:07;;;;;;;6.05;5.45;;;22.10;50.00;;;;;;5032962;28;20163;-84
2023/06/15 00:07:33;;;;;;;5.78;5.22;;;22.00;50.00;;;;;;5033781;28;20151;-85
2023/06/15 00:09:58;;;;;;;6.32;5.72;;;22.00;50.00;;;;;;5032372;28;20197;-80
2023/06/15 00:12:24;;;;;;;5.38;4.88;;;22.00;50.00;;;;;;5032615;28;20163;-83
2023/06/15 00:14:50;;;;;;;5.43;4.90;;;22.00;50.00;;;;;;5032166;28;20159;-80
2023/06/15 00:17:15;;;;;;;5.88;5.35;;;22.00;50.00;;;;;;5033474;28;20618;-82
2023/06/15 00:19:44;;;;;;;7.38;5.75;;;22.00;50.00;;;;;;5033395;28;20622;-85
2023/06/15 00:22:14;;;;;;;6.20;5.60;;;22.00;50.00;;;;;;5033330;28;20200;-80
2023/06/15 00:24:41;;;;;;;6.38;5.78;;;22.00;50.00;;;;;;5032226;28;20155;-82
2023/06/15 00:27:08;;;;;;;6.15;5.35;;;22.00;50.10;;;;;;5032108;28;20198;-82
2023/06/15 00:29:33;;;;;;;6.13;5.50;;;22.00;50.10;;;;;;5033389;28;20194;-83
2023/06/15 00:31:59;;;;;;;6.20;5.28;;;22.10;50.20;;;;;;5033531;28;20277;-84
2023/06/15 00:34:25;;;;;;;6.18;5.53;;;22.00;50.10;;;;;;5031975;28;20151;-84
2023/06/15 00:36:51;;;;;;;5.82;5.22;;;22.00;50.10;;;;;;5032465;28;20263;-83
2023/06/15 00:39:16;;;;;;;6.50;5.72;;;22.00;50.10;;;;;;5032037;28;20165;-82
2023/06/15 00:41:42;;;;;;;5.90;5.30;;;22.00;50.10;;;;;;5033032;28;20155;-83
2023/06/15 00:44:09;;;;;;;5.80;5.20;;;22.00;50.10;;;;;;5032038;28;20163;-83
2023/06/15 00:46:34;;;;;;;6.00;5.40;;;22.00;50.10;;;;;;5031604;28;20715;-84
2023/06/15 00:49:00;;;;;;;5.80;5.20;;;22.00;50.10;;;;;;5031626;28;20175;-83
2023/06/15 00:51:26;;;;;;;6.20;5.60;;;22.00;50.10;;;;;;5033221;28;20656;-83
2023/06/15 00:53:52;;;;;;;5.60;5.10;;;22.00;50.20;;;;;;5033052;28;20170;-83
2023/06/15 00:56:17;;;;;;;6.50;5.55;;;22.00;50.10;;;;;;5033318;28;20155;-81
2023/06/15 00:58:44;;;;;;;5.90;5.30;;;21.90;50.20;;;;;;5032901;28;20581;-84
2023/06/15 01:01:09;;;;;;;5.53;5.03;;;21.90;50.10;;;;;;5033348;28;20182;-82
2023/06/15 01:03:35;;;;;;;6.32;5.68;;;21.90;50.20;;;;;;5032927;28;20529;-83
2023/06/15 01:06:10;;;;;;;6.00;5.25;;;21.90;50.20;;;;;;5031713;28;20159;-81
2023/06/15 01:08:37;;;;;;;6.03;5.28;;;21.90;50.20;;;;;;5032071;28;20162;-82
2023/06/15 01:11:03;;;;;;;6.05;5.45;;;21.90;50.20;;;;;;5031914;28;20202;-79
2023/06/15 01:13:28;;;;;;;5.22;4.72;;;21.90;50.20;;;;;;5032744;28;20159;-81
2023/06/15 01:15:56;;;;;;;5.47;4.97;;;21.90;50.20;;;;;;5031555;28;20159;-79
2023/06/15 01:18:24;;;;;;;5.45;4.90;;;21.90;50.20;;;;;;5031933;28;20629;-81
2023/06/15 01:20:50;;;;;;;6.05;5.40;;;21.90;50.20;;;;;;5031517;28;20166;-82
2023/06/15 01:23:27;;;;;;;5.40;4.85;;;21.90;50.30;;;;;;5035086;28;20159;-81
2023/06/15 01:26:05;;;;;;;5.85;5.25;;;21.90;50.30;;;;;;5035741;28;20160;-78
2023/06/15 01:28:31;;;;;;;5.72;5.18;;;21.90;50.30;;;;;;5035271;28;20533;-81
2023/06/15 01:30:57;;;;;;;6.05;5.45;;;21.90;50.30;;;;;;5035143;28;20187;-81
2023/06/15 01:33:22;;;;;;;6.63;4.95;;;21.90;50.30;;;;;;5036416;28;20159;-81
2023/06/15 01:35:48;;;;;;;5.95;5.07;;;21.90;50.30;;;;;;5035139;28;20627;-82
2023/06/15 01:38:14;;;;;;;5.22;4.72;;;21.80;50.30;;;;;;5035455;28;20170;-81
2023/06/15 01:40:42;;;;;;;5.80;5.20;;;21.80;50.30;;;;;;5035013;28;20202;-79
2023/06/15 01:43:11;;;;;;;6.65;5.43;;;21.80;50.30;;;;;;5034984;28;20163;-83
2023/06/15 01:45:37;;;;;;;6.00;5.40;;;21.80;50.30;;;;;;5035110;28;20207;-81
2023/06/15 01:48:03;;;;;;;5.53;5.03;;;21.80;50.30;;;;;;5034658;28;20225;-78
2023/06/15 01:50:29;;;;;;;5.82;5.28;;;21.90;50.40;;;;;;5034811;28;20548;-81
2023/06/15 01:52:55;;;;;;;6.70;5.20;;;21.80;50.30;;;;;;5035157;28;20251;-80
2023/06/15 01:55:20;;;;;;;5.57;5.00;;;21.80;50.40;;;;;;5035938;28;20552;-82
2023/06/15 01:57:46;;;;;;;5.75;5.15;;;21.80;50.40;;;;;;5034915;28;20788;-82
2023/06/15 02:00:12;;;;;;;5.43;4.93;;;21.80;50.40;;;;;;5035856;28;20155;-79
2023/06/15 02:02:38;;;;;;;5.63;5.03;;;21.80;50.40;;;;;;5034508;28;20540;-79
2023/06/15 02:05:06;;;;;;;5.80;5.20;;;21.80;50.30;;;;;;5036149;28;20529;-81
2023/06/15 02:07:32;;;;;;;5.80;5.20;;;21.80;50.30;;;;;;5034617;28;20225;-79
2023/06/15 02:09:57;;;;;;;6.72;5.30;;;21.80;50.40;;;;;;5034439;28;20210;-83
2023/06/15 02:12:23;;;;;;;6.05;5.45;;;21.80;50.30;;;;;;5035741;28;20155;-79
2023/06/15 02:14:49;;;;;;;5.90;5.25;;;21.80;50.30;;;;;;5034389;28;20238;-80
2023/06/15 02:17:17;;;;;;;5.78;5.22;;;21.80;50.30;;;;;;5035895;28;20174;-81
2023/06/15 02:19:45;;;;;;;6.18;5.50;;;21.80;50.40;;;;;;5034409;28;20568;-79
2023/06/15 02:22:11;;;;;;;5.60;5.00;;;21.80;50.40;;;;;;5034502;28;20177;-81
2023/06/15 02:24:36;;;;;;;5.70;5.10;;;21.70;50.40;;;;;;5035804;28;20163;-81
2023/06/15 02:27:02;;;;;;;6.10;5.40;;;21.70;50.40;;;;;;5034238;28;20163;-80
2023/06/15 02:29:28;;;;;;;5.60;5.05;;;21.70;50.40;;;;;;5034171;28;20198;-83
2023/06/15 02:31:53;;;;;;;5.70;5.10;;;21.80;50.40;;;;;;5034248;28;20517;-83
2023/06/15 02:34:20;;;;;;;5.70;5.10;;;21.80;50.40;;;;;;5033913;28;20494;-82
2023/06/15 02:36:46;;;;;;;5.55;5.05;;;21.70;50.40;;;;;;5034091;28;20619;-81
2023/06/15 02:39:12;;;;;;;5.57;5.03;;;21.70;50.40;;;;;;5034194;28;20665;-81
2023/06/15 02:41:38;;;;;;;5.53;4.95;;;21.70;50.40;;;;;;5017469;28;20170;-79
2023/06/15 02:44:04;;;;;;;5.65;5.05;;;21.70;50.40;;;;;;5033939;28;20177;-80
2023/06/15 02:46:30;;;;;;;5.45;4.95;;;21.70;50.40;;;;;;5033779;28;20218;-81
2023/06/15 02:48:56;;;;;;;5.28;4.78;;;21.70;50.40;;;;;;5034127;28;20155;-82
2023/06/15 02:51:23;;;;;;;5.20;4.65;;;21.70;50.40;;;;;;5033876;28;20155;-83
2023/06/15 02:53:48;;;;;;;6.07;5.45;;;21.70;50.40;;;;;;5033945;28;20155;-82
2023/06/15 02:56:18;;;;;;;6.30;5.68;;;21.70;50.40;;;;;;5034052;28;20647;-81
2023/06/15 02:58:47;;;;;;;5.90;5.30;;;21.70;50.40;;;;;;5034162;28;20170;-84
2023/06/15 03:01:16;;;;;;;5.60;5.00;;;21.70;50.50;;;;;;5033723;28;20623;-79
2023/06/15 03:03:42;;;;;;;5.50;4.93;;;21.70;50.40;;;;;;5035029;28;20245;-80
2023/06/15 03:06:09;;;;;;;5.65;5.10;;;21.70;50.50;;;;;;5034654;28;20159;-83
2023/06/15 03:08:36;;;;;;;5.10;4.60;;;21.70;50.50;;;;;;5034604;28;20166;-79
2023/06/15 03:11:02;;;;;;;6.05;4.90;;;21.70;50.50;;;;;;5033360;28;20683;-81
2023/06/15 03:13:29;;;;;;;5.68;5.10;;;21.70;50.30;;;;;;5034456;28;20249;-82
2023/06/15 03:15:55;;;;;;;5.68;5.13;;;21.70;50.40;;;;;;5034458;28;20178;-83
2023/06/15 03:18:21;;;;;;;5.68;5.00;;;21.70;50.40;;;;;;5034515;28;20151;-83
2023/06/15 03:20:52;;;;;;;5.68;4.95;;;21.80;50.40;;;;;;5033136;28;20167;-82
2023/06/15 03:23:19;;;;;;;5.32;4.70;;;21.70;50.40;;;;;;5033274;28;20494;-81
2023/06/15 03:25:45;;;;;;;5.45;4.80;;;21.70;50.40;;;;;;5033073;28;20159;-79
2023/06/15 03:28:11;;;;;;;6.15;5.40;;;21.70;50.30;;;;;;5034235;28;20161;-81
2023/06/15 03:30:40;;;;;;;5.75;5.05;;;21.70;50.40;;;;;;5034164;28;20185;-81
2023/06/15 03:33:07;;;;;;;5.43;4.93;;;21.70;50.40;;;;;;5034134;28;20234;-81
2023/06/15 03:35:33;;;;;;;5.65;5.07;;;21.70;50.50;;;;;;5032836;28;20170;-81
2023/06/15 03:37:59;;;;;;;5.97;5.07;;;21.60;50.40;;;;;;5034083;28;20155;-80
2023/06/15 03:40:25;;;;;;;5.53;4.93;;;21.70;50.40;;;;;;5033996;28;20205;-81
2023/06/15 03:42:50;;;;;;;5.70;5.00;;;21.70;50.40;;;;;;5034336;28;20640;-81
2023/06/15 03:45:17;;;;;;;5.30;4.80;;;21.70;50.30;;;;;;5032272;28;20154;-81
2023/06/15 03:47:45;;;;;;;5.85;5.28;;;21.70;50.30;;;;;;5032549;28;20229;-80
2023/06/15 03:50:11;;;;;;;6.00;5.40;;;21.70;50.30;;;;;;5032732;28;20191;-82
2023/06/15 03:52:37;;;;;;;5.28;4.78;;;21.80;50.20;;;;;;5034023;28;20216;-82
2023/06/15 03:55:03;;;;;;;5.70;5.15;;;21.80;50.30;;;;;;5034017;28;20189;-83
2023/06/15 03:57:29;;;;;;;5.45;4.95;;;21.80;50.30;;;;;;5034096;28;20166;-81
2023/06/15 03:59:55;;;;;;;6.00;5.40;;;21.80;50.30;;;;;;5033838;28;20194;-81
2023/06/15 04:02:20;;;;;;;5.10;4.60;;;21.80;50.10;;;;;;5034091;28;20194;-79
2023/06/15 04:04:46;;;;;;;5.38;4.88;;;21.80;50.10;;;;;;5033654;28;20522;-81
2023/06/15 04:07:12;;;;;;;5.35;4.70;;;21.80;50.10;;;;;;5033844;28;20537;-80
2023/06/15 04:09:38;;;;;;;5.25;4.75;;;21.80;50.70;;;;;;5033691;28;20194;-82
2023/06/15 04:12:04;;;;;;;5.28;4.78;;;21.80;50.10;;;;;;5033690;28;20169;-81
2023/06/15 04:14:30;;;;;;;5.25;4.68;;;21.80;50.00;;;;;;5033561;28;20218;-79
2023/06/15 04:16:56;;;;;;;5.60;5.10;;;21.80;50.00;;;;;;5033735;28;20250;-81
2023/06/15 04:19:22;;;;;;;5.55;4.85;;;21.80;50.00;;;;;;5033589;28;20598;-82
2023/06/15 04:21:49;;;;;;;5.35;4.85;;;21.80;50.00;;;;;;5033779;28;20194;-80
2023/06/15 04:24:15;;;;;;;5.43;4.68;;;21.80;50.00;;;;;;5033286;28;20186;-80
2023/06/15 04:26:42;;;;;;;5.35;4.85;;;21.80;50.00;;;;;;5032190;28;20174;-82
2023/06/15 04:29:08;;;;;;;5.30;4.80;;;21.80;49.90;;;;;;5032027;28;20147;-80
2023/06/15 04:31:34;;;;;;;5.47;4.97;;;21.90;49.90;;;;;;5033473;28;20170;-80
2023/06/15 04:34:00;;;;;;;5.53;5.00;;;21.90;49.80;;;;;;5033180;28;20155;-81
2023/06/15 04:36:27;;;;;;;5.25;4.75;;;21.90;49.90;;;;;;5032032;28;20513;-83
2023/06/15 04:38:53;;;;;;;5.90;5.30;;;21.90;49.70;;;;;;5032274;28;20166;-82
2023/06/15 04:41:22;;;;;;;5.30;4.68;;;21.90;49.70;;;;;;5033169;28;20177;-80
2023/06/15 04:43:48;;;;;;;5.65;4.80;;;21.90;49.60;;;;;;5033625;28;20700;-81
2023/06/15 04:46:16;;;;;;;6.00;5.40;;;22.00;49.70;;;;;;5032070;28;20226;-79
2023/06/15 04:48:43;;;;;;;5.57;5.07;;;22.00;49.60;;;;;;5032227;28;20162;-80
2023/06/15 04:51:12;;;;;;;5.43;4.93;;;22.00;49.60;;;;;;5032016;28;20224;-79
2023/06/15 04:53:39;;;;;;;5.70;5.10;;;22.00;49.50;;;;;;5033102;28;20209;-82
2023/06/15 04:56:04;;;;;;;5.13;4.63;;;22.00;49.60;;;;;;5033119;28;20155;-79
2023/06/15 04:58:30;;;;;;;5.38;4.88;;;22.00;49.50;;;;;;5035861;28;20205;-80
2023/06/15 05:00:56;;;;;;;5.22;4.72;;;21.90;49.60;;;;;;5035889;28;20220;-82
2023/06/15 05:03:22;;;;;;;5.40;4.90;;;22.00;49.60;;;;;;5037043;28;20189;-81
2023/06/15 05:05:47;;;;;;;5.55;5.00;;;22.10;49.60;;;;;;5036882;28;20166;-80
2023/06/15 05:08:13;;;;;;;5.18;4.68;;;22.00;49.40;;;;;;5037258;28;20163;-80
2023/06/15 05:10:39;;;;;;;5.60;5.07;;;22.00;49.40;;;;;;5035508;28;20676;-80
2023/06/15 05:13:05;;;;;;;5.22;4.72;;;22.00;49.40;;;;;;5036925;28;20183;-81
2023/06/15 05:15:30;;;;;;;5.28;4.78;;;22.10;49.40;;;;;;5035555;28;20302;-81
2023/06/15 05:17:56;;;;;;;5.32;4.72;;;22.00;49.30;;;;;;5036664;28;20262;-82
2023/06/15 05:20:22;;;;;;;5.60;5.00;;;22.10;49.40;;;;;;5036640;28;20525;-83
2023/06/15 05:22:47;;;;;;;4.97;4.50;;;22.10;49.40;;;;;;5036695;28;20644;-80
2023/06/15 05:25:13;;;;;;;5.07;4.57;;;22.10;49.20;;;;;;5036541;28;20155;-82
2023/06/15 05:27:39;;;;;;;5.57;5.07;;;22.10;49.20;;;;;;5036879;28;20685;-80
2023/06/15 05:30:07;;;;;;;5.60;4.85;;;22.10;49.20;;;;;;5036343;28;20665;-81
2023/06/15 05:32:37;;;;;;;5.13;4.55;;;22.10;49.20;;;;;;5035349;28;20664;-81
2023/06/15 05:35:05;;;;;;;5.93;4.88;;;22.10;49.20;;;;;;5036390;28;20506;-83
2023/06/15 05:37:32;;;;;;;5.43;4.93;;;22.10;49.20;;;;;;5036617;28;20205;-83
2023/06/15 05:39:58;;;;;;;5.57;4.97;;;22.00;49.40;;;;;;5035163;28;20181;-82
2023/06/15 05:42:26;;;;;;;4.65;4.22;;;22.00;49.50;;;;;;5036329;28;20162;-83
2023/06/15 05:44:51;;;;;;;5.70;4.95;;;22.00;49.40;;;;;;5036152;28;20560;-82
2023/06/15 05:47:17;;;;;;;4.40;4.00;;;22.00;49.40;;;;;;5034824;28;20680;-81
2023/06/15 05:49:43;;;;;;;4.72;4.22;;;21.90;49.40;;;;;;5036060;28;20265;-82
2023/06/15 05:52:09;;;;;;;4.55;4.10;;;21.90;49.50;;;;;;5034898;28;20622;-80
2023/06/15 05:54:34;;;;;;;4.75;4.28;;;21.90;49.20;;;;;;5036356;28;20665;-83
2023/06/15 05:57:01;;;;;;;4.43;4.03;;;21.90;49.10;;;;;;5036008;28;20521;-83
2023/06/15 05:59:27;;;;;;;4.25;3.85;;;21.90;49.20;;;;;;5035861;28;20155;-82
2023/06/15 06:01:53;;;;;;;4.63;4.20;;;21.90;49.10;;;;;;5034903;28;20174;-82
2023/06/15 06:04:19;;;;;;;4.28;3.88;;;21.90;49.10;;;;;;5035850;28;20155;-81
2023/06/15 06:06:45;;;;;;;4.20;3.80;;;21.90;48.90;;;;;;5036127;28;20166;-79
2023/06/15 06:09:11;;;;;;;4.10;3.70;;;21.90;48.70;;;;;;5033851;28;20185;-79
2023/06/15 06:11:37;;;;;;;4.55;4.13;;;22.00;48.70;;;;;;5035972;28;20182;-80
2023/06/15 06:14:02;;;;;;;4.07;3.70;;;22.00;48.50;;;;;;5035236;28;20587;-80
2023/06/15 06:16:28;;;;;;;4.10;3.70;;;22.00;48.70;;;;;;5035402;28;20166;-82
2023/06/15 06:18:55;;;;;;;4.40;4.00;;;21.90;48.60;;;;;;5036758;28;20155;-82
2023/06/15 06:21:20;;;;;;;4.47;4.07;;;22.00;48.50;;;;;;5035428;28;20152;-81
2023/06/15 06:23:46;;;;;;;4.15;3.70;;;21.90;48.60;;;;;;5037321;28;20170;-80
2023/06/15 06:26:12;;;;;;;3.80;3.50;;;21.90;48.10;;;;;;5036893;28;20159;-80
2023/06/15 06:28:37;;;;;;;4.20;3.80;;;21.90;48.10;;;;;;5034979;28;20643;-83
2023/06/15 06:31:03;;;;;;;4.20;3.80;;;22.00;48.10;;;;;;5018252;28;20541;-81
2023/06/15 06:33:29;;;;;;;4.10;3.70;;;21.90;47.90;;;;;;5017785;28;20617;-82
2023/06/15 06:35:54;;;;;;;4.38;3.97;;;21.90;47.90;;;;;;5034145;28;20587;-80
2023/06/15 06:38:20;;;;;;;4.00;3.60;;;21.80;48.20;;;;;;5035915;28;20205;-80
2023/06/15 06:40:46;;;;;;;3.80;3.50;;;21.80;48.40;;;;;;5035127;28;20159;-80
2023/06/15 06:43:11;;;;;;;4.07;3.67;;;21.80;48.30;;;;;;5033914;28;20276;-79
2023/06/15 06:45:37;;;;;;;4.30;3.80;;;21.90;47.80;;;;;;5018929;28;20253;-81
2023/06/15 06:48:05;;;;;;;3.72;3.33;;;21.80;48.10;;;;;;5020527;28;20228;-80
2023/06/15 06:50:31;;;;;;;4.20;3.80;;;21.80;47.90;;;;;;5020849;28;20231;-82
2023/06/15 06:52:57;;;;;;;4.05;3.65;;;21.90;47.80;;;;;;5037317;28;20171;-83
2023/06/15 06:55:23;;;;;;;3.90;3.50;;;21.90;47.80;;;;;;5036864;28;20163;-82
2023/06/15 06:57:49;;;;;;;4.03;3.63;;;21.80;47.80;;;;;;5037288;28;20618;-84
2023/06/15 07:00:16;;;;;;;3.95;3.63;;;21.90;47.80;;;;;;5038337;28;20163;-81
2023/06/15 07:02:42;;;;;;;3.92;3.53;;;21.80;47.80;;;;;;5036667;28;20174;-82
2023/06/15 07:05:08;;;;;;;3.75;3.30;;;21.80;47.80;;;;;;5037799;28;20163;-81
2023/06/15 07:07:34;;;;;;;5.00;4.15;;;21.90;47.60;;;;;;5035485;28;20169;-84
2023/06/15 07:09:59;;;;;;;3.85;3.53;;;21.90;47.50;;;;;;5035105;28;20229;-80
2023/06/15 07:12:25;;;;;;;3.45;3.15;;;21.90;47.20;;;;;;5036566;28;20147;-82
2023/06/15 07:14:51;;;;;;;3.55;3.25;;;21.90;47.40;;;;;;5036901;28;20151;-83
2023/06/15 07:17:17;;;;;;;3.70;3.30;;;21.90;47.50;;;;;;5036059;28;20194;-84
2023/06/15 07:19:42;;;;;;;3.55;3.22;;;21.90;47.50;;;;;;5035549;28;20159;-81
2023/06/15 07:22:08;;;;;;;3.92;3.58;;;21.90;47.50;;;;;;5018245;28;20198;-82
2023/06/15 07:24:35;;;;;;;4.15;3.20;;;21.90;47.60;;;;;;5036397;28;20800;-82
2023/06/15 07:27:01;;;;;;;4.85;3.53;;;21.90;47.50;;;;;;5037448;28;20182;-80
2023/06/15 07:29:28;;;;;;;3.75;3.42;;;21.90;47.40;;;;;;5040434;28;20163;-81
2023/06/15 07:31:53;;;;;;;3.50;3.20;;;21.80;47.60;;;;;;5041995;28;20159;-80
2023/06/15 07:34:19;;;;;;;3.63;3.33;;;21.70;47.60;;;;;;5039317;28;20194;-81
2023/06/15 07:36:46;;;;;;;3.70;3.28;;;21.80;47.70;;;;;;5038000;28;20540;-82
2023/06/15 07:39:12;;;;;;;3.20;2.90;;;21.90;47.60;;;;;;5036558;28;20230;-83
2023/06/15 07:41:38;;;;;;;3.75;3.42;;;21.90;47.60;;;;;;5019241;28;20166;-79
2023/06/15 07:44:04;;;;;;;3.83;3.45;;;21.90;47.60;;;;;;5035803;28;20189;-82
2023/06/15 07:46:29;;;;;;;4.07;3.40;;;21.90;47.60;;;;;;5032831;28;20222;-80
2023/06/15 07:48:55;;;;;;;3.50;3.20;;;21.90;47.50;;;;;;5032954;28;20158;-81
2023/06/15 07:51:20;;;;;;;3.60;3.30;;;22.00;47.50;;;;;;5033829;28;20189;-82
2023/06/15 07:53:46;;;;;;;4.43;3.58;;;22.10;47.20;;;;;;5032516;28;20570;-82
2023/06/15 07:56:12;;;;;;;4.00;3.60;;;22.10;47.30;;;;;;5036993;28;20159;-81
2023/06/15 07:58:39;;;;;;;3.75;3.38;;;22.00;47.40;;;;;;5037693;28;20169;-80
2023/06/15 08:01:04;;;;;;;3.63;3.33;;;22.00;47.60;;;;;;5036798;28;20234;-82
2023/06/15 08:03:30;;;;;;;4.35;3.40;;;22.00;47.50;;;;;;5036133;28;20189;-81
2023/06/15 08:05:55;;;;;;;5.18;3.50;;;22.10;47.40;;;;;;5037734;28;20608;-80
2023/06/15 08:08:21;;;;;;;3.88;3.47;;;22.10;47.40;;;;;;5039751;28;20510;-82
2023/06/15 08:10:47;;;;;;;3.85;3.50;;;22.00;47.40;;;;;;5037951;28;20534;-80
2023/06/15 08:13:14;;;;;;;3.85;3.47;;;22.10;47.30;;;;;;5039235;28;20637;-80
2023/06/15 08:15:40;;;;;;;4.18;3.53;;;22.10;47.40;;;;;;5037997;28;20625;-79
2023/06/15 08:18:06;;;;;;;3.80;3.50;;;22.00;47.60;;;;;;5038282;28;20201;-81
2023/06/15 08:20:32;;;;;;;3.53;3.22;;;22.00;47.50;;;;;;5022431;28;20266;-83
2023/06/15 08:23:00;;;;;;;3.80;3.50;;;22.20;47.40;;;;;;5039153;28;20181;-80
2023/06/15 08:25:26;;;;;;;3.95;3.60;;;22.20;47.30;;;;;;5039772;28;20159;-82
2023/06/15 08:27:51;;;;;;;4.00;3.60;;;22.20;47.30;;;;;;5037621;28;20174;-81
2023/06/15 08:30:17;;;;;;;4.35;3.60;;;22.10;47.60;;;;;;5038138;28;20182;-82
2023/06/15 08:33:26;;;;;;;3.80;3.40;;;22.10;47.50;;;;;;5019455;28;20170;-84
2023/06/15 08:35:56;;;;;;;3.83;3.25;;;22.30;47.30;;;;;;5016993;28;20179;-82
2023/06/15 08:38:21;;;;;;;4.20;3.80;;;22.20;47.30;;;;;;5000577;28;20180;-82
2023/06/15 08:40:47;;;;;;;3.30;3.00;;;22.20;47.50;;;;;;5000477;28;20178;-84
2023/06/15 08:43:16;;;;;;;3.95;3.58;;;22.30;47.30;;;;;;5017355;28;20764;-80
2023/06/15 08:45:42;;;;;;;3.63;3.33;;;22.30;47.10;;;;;;4999013;28;20190;-81
2023/06/15 08:48:10;;;;;;;4.13;3.40;;;22.30;47.30;;;;;;4963453;28;20219;-85
2023/06/15 08:50:37;;;;;;;4.93;3.63;;;22.30;47.50;;;;;;4987922;28;20213;-81
2023/06/15 08:53:04;;;;;;;4.03;3.30;;;22.30;47.30;;;;;;4968915;28;20242;-83
2023/06/15 08:55:30;;;;;;;3.72;3.42;;;22.30;47.50;;;;;;4982765;28;20180;-84
2023/06/15 08:57:57;;;;;;;4.03;3.35;;;22.20;47.60;;;;;;4995013;28;20171;-84
2023/06/15 09:00:22;;;;;;;3.55;3.25;;;22.30;47.60;;;;;;4995014;28;20187;-83
2023/06/15 09:02:48;;;;;;;3.67;3.38;;;22.20;47.60;;;;;;4977910;28;20211;-83
2023/06/15 09:05:14;;;;;;;4.10;3.67;;;22.20;47.60;;;;;;4980894;28;20163;-81
2023/06/15 09:07:40;;;;;;;3.80;3.50;;;22.20;47.90;;;;;;4999990;28;20182;-81
2023/06/15 09:10:15;;;;;;;3.70;3.40;;;22.10;47.90;;;;;;4984730;28;20194;-83
2023/06/15 09:12:43;;;;;;;4.20;3.70;;;22.20;47.90;;;;;;5034604;28;20185;-83
2023/06/15 09:15:12;;;;;;;3.83;3.50;;;22.30;47.70;;;;;;5022046;28;20651;-82
2023/06/15 09:17:39;;;;;;;4.07;3.63;;;22.30;47.60;;;;;;5021196;28;20158;-82
2023/06/15 09:20:06;;;;;;;4.15;3.70;;;22.20;47.50;;;;;;5015678;28;20684;-81
2023/06/15 09:22:31;;;;;;;4.40;3.50;;;22.20;47.60;;;;;;5016182;28;20187;-84
2023/06/15 09:24:57;;;;;;;4.25;3.50;;;22.20;47.70;;;;;;5016293;28;20169;-83
2023/06/15 09:27:23;;;;;;;3.90;3.47;;;22.30;47.70;;;;;;5032891;28;20191;-83
2023/06/15 09:30:01;;;;;;;3.72;3.42;;;22.30;47.60;;;;;;5017905;28;20606;-84
2023/06/15 09:32:28;;;;;;;4.20;3.80;;;22.30;47.70;;;;;;5026778;28;20177;-84
2023/06/15 09:34:58;;;;;;;4.95;3.70;;;22.20;47.80;;;;;;5034556;28;20611;-82
2023/06/15 09:37:27;;;;;;;4.50;3.85;;;22.20;47.80;;;;;;5016214;28;20537;-81
2023/06/15 09:39:53;;;;;;;4.00;3.60;;;22.20;47.90;;;;;;5038678;28;20186;-82
2023/06/15 09:42:24;;;;;;;4.10;3.53;;;22.20;48.00;;;;;;5039379;28;20162;-86
2023/06/15 09:44:53;;;;;;;4.30;3.80;;;22.20;48.70;;;;;;5044159;28;20167;-81
2023/06/15 09:47:20;;;;;;;4.95;3.53;;;22.20;48.00;;;;;;5040659;28;20253;-82
2023/06/15 09:49:48;;;;;;;5.65;3.63;;;22.20;48.00;;;;;;5040474;28;20653;-85
2023/06/15 09:52:13;;;;;;;5.45;3.50;;;22.20;47.90;;;;;;5039035;28;20163;-83
2023/06/15 09:54:39;;;;;;;4.57;3.70;;;22.30;47.80;;;;;;5040235;28;20676;-84
2023/06/15 09:57:08;;;;;;;5.82;3.50;;;22.30;47.90;;;;;;5040340;28;20238;-83
2023/06/15 09:59:34;;;;;;;4.50;3.40;;;22.20;48.00;;;;;;5000102;28;20183;-83
2023/06/15 10:02:00;;;;;;;6.40;3.50;;;22.30;47.80;;;;;;4999708;28;20720;-82
2023/06/15 10:04:30;;;;;;;4.75;3.35;;;22.30;47.70;;;;;;5000652;28;20592;-82
2023/06/15 10:07:00;;;;;;;4.68;3.33;;;22.30;47.80;;;;;;5001297;28;20171;-84
2023/06/15 10:09:28;;;;;;;5.55;3.60;;;22.30;47.80;;;;;;5015864;28;20226;-85
2023/06/15 10:11:56;;;;;;;4.75;4.20;;;22.40;47.80;;;;;;5015584;28;20155;-82
2023/06/15 10:14:27;;;;;;;7.68;4.28;;;22.30;48.00;;;;;;4998798;28;20179;-84
2023/06/15 10:16:59;;;;;;;10.75;3.92;;;22.30;47.90;;;;;;5016517;28;20669;-83
2023/06/15 10:19:25;;;;;;;4.40;3.47;;;22.30;48.00;;;;;;5002011;28;20216;-81
2023/06/15 10:21:50;;;;;;;6.90;3.70;;;22.30;47.90;;;;;;4980109;28;20255;-83
2023/06/15 10:24:16;;;;;;;4.60;3.50;;;22.40;47.90;;;;;;4995423;28;20176;-83
2023/06/15 10:26:45;;;;;;;6.78;4.07;;;22.40;47.80;;;;;;5016546;28;20167;-82
2023/06/15 10:29:21;;;;;;;8.43;3.78;;;22.40;47.90;;;;;;5020066;28;20290;-83
2023/06/15 10:32:01;;;;;;;6.07;3.70;;;22.40;47.80;;;;;;5040470;28;20154;-82
2023/06/15 10:34:31;;;;;;;9.50;3.63;;;22.40;47.80;;;;;;5041767;28;20606;-82
2023/06/15 10:37:21;;;;;;;7.70;3.85;;;22.50;47.60;;;;;;5037785;28;20170;-85
2023/06/15 10:39:47;;;;;;;5.13;3.75;;;22.50;47.60;;;;;;5035343;28;20182;-82
2023/06/15 10:42:14;;;;;;;9.18;4.13;;;22.50;47.60;;;;;;4986514;28;20576;-84
2023/06/15 10:44:40;;;;;;;9.60;3.90;;;22.40;47.60;;;;;;4986268;28;20182;-82
2023/06/15 10:47:08;;;;;;;6.10;3.90;;;22.50;47.70;;;;;;5002140;28;20724;-83
2023/06/15 10:49:34;;;;;;;4.57;3.22;;;22.50;47.60;;;;;;4986487;28;20190;-85
2023/06/15 10:52:00;;;;;;;5.57;3.67;;;22.50;47.60;;;;;;5036102;28;20159;-83
2023/06/15 10:54:26;;;;;;;5.70;3.67;;;22.50;47.60;;;;;;5021529;28;20185;-84
2023/06/15 10:56:53;;;;;;;6.47;3.58;;;22.50;47.60;;;;;;5020809;28;20186;-81
2023/06/15 10:59:39;;;;;;;4.72;3.88;;;22.50;47.50;;;;;;5022619;28;20186;-81
2023/06/15 11:02:41;;;;;;;5.72;4.00;;;22.60;47.50;;;;;;5006153;28;20316;-80
2023/06/15 11:05:09;;;;;;;5.78;3.92;;;22.50;47.40;;;;;;5027141;28;20193;-80
2023/06/15 11:07:40;;;;;;;6.65;3.80;;;22.60;47.40;;;;;;4994153;28;20640;-81
2023/06/15 11:10:26;;;;;;;6.38;3.67;;;22.50;47.30;;;;;;5042600;28;20210;-80
2023/06/15 11:13:00;;;;;;;5.85;4.18;;;22.60;47.40;;;;;;5044007;28;20151;-80
2023/06/15 11:15:31;;;;;;;8.57;3.78;;;22.60;47.50;;;;;;5045828;28;20162;-81
2023/06/15 11:17:57;;;;;;;5.05;3.83;;;22.60;47.50;;;;;;5044023;28;20153;-80
2023/06/15 11:20:42;;;;;;;7.30;3.78;;;22.60;47.30;;;;;;5044155;28;20155;-81
2023/06/15 11:23:11;;;;;;;4.88;3.72;;;22.60;47.30;;;;;;5044959;28;20161;-81
2023/06/15 11:25:39;;;;;;;5.80;3.90;;;22.60;47.20;;;;;;5028133;28;20171;-81
2023/06/15 11:28:12;;;;;;;7.05;3.88;;;22.50;47.20;;;;;;5027562;28;20167;-80
2023/06/15 11:30:39;;;;;;;5.75;3.60;;;22.60;47.00;;;;;;5044572;28;20228;-80
2023/06/15 11:33:11;;;;;;;5.65;3.65;;;22.70;46.90;;;;;;5025932;28;20162;-80
2023/06/15 11:35:37;;;;;;;7.55;4.00;;;22.70;46.80;;;;;;5027050;28;20163;-80
2023/06/15 11:38:07;;;;;;;4.60;4.15;;;22.80;46.80;;;;;;5042889;28;20193;-80
2023/06/15 11:40:33;;;;;;;7.20;3.60;;;22.70;46.80;;;;;;5042982;28;20197;-81
2023/06/15 11:42:59;;;;;;;5.88;3.72;;;22.80;46.60;;;;;;5041792;28;20536;-81
2023/06/15 11:45:25;;;;;;;4.28;3.63;;;22.80;46.70;;;;;;5040371;28;20178;-81
2023/06/15 11:47:51;;;;;;;4.18;3.78;;;22.70;46.70;;;;;;5039159;28;20233;-85
2023/06/15 11:50:18;;;;;;;7.00;3.75;;;22.80;46.50;;;;;;5027644;28;20271;-81
2023/06/15 11:52:47;;;;;;;7.22;3.88;;;22.80;46.50;;;;;;5044130;28;20182;-80
2023/06/15 11:55:16;;;;;;;4.00;3.60;;;22.80;46.40;;;;;;5027595;28;20602;-83
2023/06/15 11:57:43;;;;;;;4.45;3.80;;;22.80;46.50;;;;;;5026853;28;20166;-83
2023/06/15 12:00:10;;;;;;;4.13;3.63;;;22.80;46.40;;;;;;5042388;28;20171;-80
2023/06/15 12:02:37;;;;;;;5.47;4.00;;;22.80;46.40;;;;;;5024898;28;20193;-81
2023/06/15 12:05:03;;;;;;;4.25;3.85;;;22.80;46.40;;;;;;5020893;28;20174;-84
2023/06/15 12:07:32;;;;;;;4.57;3.30;;;22.70;46.40;;;;;;5035873;28;20187;-83
2023/06/15 12:09:59;;;;;;;5.22;3.70;;;22.80;46.70;;;;;;5020862;28;20244;-81
2023/06/15 12:12:32;;;;;;;4.07;3.67;;;22.90;46.30;;;;;;5019332;28;20159;-84
2023/06/15 12:15:00;;;;;;;4.30;3.78;;;22.90;46.20;;;;;;5034902;28;20151;-81
2023/06/15 12:17:28;;;;;;;4.53;3.33;;;22.90;46.10;;;;;;5019528;28;20170;-83
2023/06/15 12:20:05;;;;;;;4.32;3.60;;;22.90;46.00;;;;;;5033675;28;20155;-85
2023/06/15 12:22:35;;;;;;;4.28;3.65;;;22.90;45.80;;;;;;5016391;28;20162;-83
2023/06/15 12:25:03;;;;;;;5.00;3.50;;;23.00;45.70;;;;;;5033551;28;20162;-81
2023/06/15 12:27:31;;;;;;;4.28;3.88;;;23.00;45.50;;;;;;5036485;28;20154;-85
2023/06/15 12:30:09;;;;;;;5.70;3.53;;;23.00;45.50;;;;;;5018898;28;20260;-82
2023/06/15 12:32:35;;;;;;;3.60;3.30;;;23.00;45.30;;;;;;5018385;28;20166;-85
2023/06/15 12:35:01;;;;;;;3.85;3.55;;;23.00;45.30;;;;;;5036351;28;20517;-82
2023/06/15 12:37:28;;;;;;;4.47;3.72;;;23.00;45.30;;;;;;5018776;28;20159;-83
2023/06/15 12:39:54;;;;;;;4.70;3.65;;;23.10;45.10;;;;;;5019751;28;20167;-81
2023/06/15 12:42:20;;;;;;;4.18;3.70;;;23.00;45.00;;;;;;5014388;28;20159;-81
2023/06/15 12:44:46;;;;;;;4.20;3.80;;;23.00;45.00;;;;;;4997590;28;20275;-83
2023/06/15 12:47:11;;;;;;;3.80;3.40;;;23.00;45.00;;;;;;5014390;28;20709;-81